sensor_id;sensor_type;location;lat;lon;timestamp;pressure;altitude;pressure_sealevel;temperature;humidity
62655;BME280;48717;55.556;37.816;2023-02-02T00:01:14;98441.97;;;-2.28;95.12
62655;BME280;48717;55.556;37.816;2023-02-02T00:03:41;98443.78;;;-2.25;95.09
62655;BME280;48717;55.556;37.816;2023-02-02T00:06:08;98446.28;;;-2.28;95.01
62655;BME280;48717;55.556;37.816;2023-02-02T00:08:36;98424.53;;;-2.37;94.72
62655;BME280;48717;55.556;37.816;2023-02-02T00:11:04;98379.78;;;-2.68;95.20
62655;BME280;48717;55.556;37.816;2023-02-02T00:13:32;98433.13;;;-2.36;94.85
62655;BME280;48717;55.556;37.816;2023-02-02T00:18:52;98429.69;;;-2.37;95.44
62655;BME280;48717;55.556;37.816;2023-02-02T00:21:20;98427.88;;;-2.41;95.34
62655;BME280;48717;55.556;37.816;2023-02-02T00:23:47;98437.50;;;-2.33;95.26
62655;BME280;48717;55.556;37.816;2023-02-02T00:26:14;98418.28;;;-2.45;95.19
62655;BME280;48717;55.556;37.816;2023-02-02T00:28:42;98428.78;;;-2.39;94.99
62655;BME280;48717;55.556;37.816;2023-02-02T00:31:09;98432.34;;;-2.33;94.61
62655;BME280;48717;55.556;37.816;2023-02-02T00:33:36;98416.59;;;-2.43;94.82
62655;BME280;48717;55.556;37.816;2023-02-02T00:36:04;98431.56;;;-2.31;94.54
62655;BME280;48717;55.556;37.816;2023-02-02T00:38:31;98425.41;;;-2.36;95.30
62655;BME280;48717;55.556;37.816;2023-02-02T00:40:58;98396.38;;;-2.59;95.06
62655;BME280;48717;55.556;37.816;2023-02-02T00:43:25;98428.81;;;-2.37;94.87
62655;BME280;48717;55.556;37.816;2023-02-02T00:45:52;98434.91;;;-2.35;94.69
62655;BME280;48717;55.556;37.816;2023-02-02T00:48:20;98435.66;;;-2.39;94.90
62655;BME280;48717;55.556;37.816;2023-02-02T00:50:47;98406.59;;;-2.63;95.49
62655;BME280;48717;55.556;37.816;2023-02-02T00:53:15;98416.25;;;-2.55;95.35
62655;BME280;48717;55.556;37.816;2023-02-02T00:55:42;98435.25;;;-2.53;95.53
62655;BME280;48717;55.556;37.816;2023-02-02T00:58:09;98432.63;;;-2.55;95.73
62655;BME280;48717;55.556;37.816;2023-02-02T01:00:36;98426.13;;;-2.71;95.91
62655;BME280;48717;55.556;37.816;2023-02-02T01:03:03;98434.94;;;-2.64;96.15
62655;BME280;48717;55.556;37.816;2023-02-02T01:05:35;98439.19;;;-2.66;96.38
62655;BME280;48717;55.556;37.816;2023-02-02T01:08:02;98411.25;;;-2.80;96.66
62655;BME280;48717;55.556;37.816;2023-02-02T01:10:29;98441.72;;;-2.68;96.38
62655;BME280;48717;55.556;37.816;2023-02-02T01:12:56;98436.47;;;-2.71;96.93
62655;BME280;48717;55.556;37.816;2023-02-02T01:15:23;98430.34;;;-2.74;96.99
62655;BME280;48717;55.556;37.816;2023-02-02T01:17:53;98436.34;;;-2.74;96.47
62655;BME280;48717;55.556;37.816;2023-02-02T01:23:26;98409.28;;;-2.89;96.65
62655;BME280;48717;55.556;37.816;2023-02-02T01:25:54;98424.13;;;-2.80;96.70
62655;BME280;48717;55.556;37.816;2023-02-02T01:28:22;98411.97;;;-2.85;96.68
62655;BME280;48717;55.556;37.816;2023-02-02T01:30:50;98412.91;;;-2.82;96.34
62655;BME280;48717;55.556;37.816;2023-02-02T01:33:18;98425.88;;;-2.80;96.65
62655;BME280;48717;55.556;37.816;2023-02-02T01:35:46;98421.66;;;-2.77;96.55
62655;BME280;48717;55.556;37.816;2023-02-02T01:38:15;98427.59;;;-2.79;96.21
62655;BME280;48717;55.556;37.816;2023-02-02T01:40:56;98393.56;;;-2.96;95.72
62655;BME280;48717;55.556;37.816;2023-02-02T01:43:28;98416.44;;;-2.78;95.49
62655;BME280;48717;55.556;37.816;2023-02-02T01:45:57;98410.28;;;-2.83;95.45
62655;BME280;48717;55.556;37.816;2023-02-02T01:48:30;98413.88;;;-2.78;95.18
62655;BME280;48717;55.556;37.816;2023-02-02T01:51:02;98413.88;;;-2.78;95.08
62655;BME280;48717;55.556;37.816;2023-02-02T01:53:30;98392.78;;;-2.94;94.66
62655;BME280;48717;55.556;37.816;2023-02-02T01:55:58;98426.13;;;-2.71;94.48
62655;BME280;48717;55.556;37.816;2023-02-02T01:58:33;98417.56;;;-2.70;94.22
62655;BME280;48717;55.556;37.816;2023-02-02T02:01:01;98403.81;;;-2.69;94.54
62655;BME280;48717;55.556;37.816;2023-02-02T02:03:31;98380.75;;;-2.93;94.22
62655;BME280;48717;55.556;37.816;2023-02-02T02:06:14;98393.34;;;-2.75;94.71
62655;BME280;48717;55.556;37.816;2023-02-02T02:08:53;98409.97;;;-2.65;94.80
62655;BME280;48717;55.556;37.816;2023-02-02T02:11:22;98411.44;;;-2.73;94.75
62655;BME280;48717;55.556;37.816;2023-02-02T02:13:52;98403.56;;;-2.78;95.02
62655;BME280;48717;55.556;37.816;2023-02-02T02:20:08;98414.94;;;-2.71;95.59
62655;BME280;48717;55.556;37.816;2023-02-02T02:32:49;98426.88;;;-2.75;96.59
62655;BME280;48717;55.556;37.816;2023-02-02T02:35:35;98428.63;;;-2.74;96.29
62655;BME280;48717;55.556;37.816;2023-02-02T02:41:01;98418.22;;;-2.77;96.27
62655;BME280;48717;55.556;37.816;2023-02-02T02:43:39;98398.84;;;-2.92;96.21
62655;BME280;48717;55.556;37.816;2023-02-02T02:46:08;98370.13;;;-3.04;96.47
62655;BME280;48717;55.556;37.816;2023-02-02T02:48:36;98426.25;;;-2.68;96.71
62655;BME280;48717;55.556;37.816;2023-02-02T02:52:00;98396.59;;;-2.81;96.23
62655;BME280;48717;55.556;37.816;2023-02-02T02:54:30;98430.47;;;-2.70;96.14
62655;BME280;48717;55.556;37.816;2023-02-02T03:02:43;98431.56;;;-2.62;95.58
62655;BME280;48717;55.556;37.816;2023-02-02T03:05:30;98427.97;;;-2.67;95.45
62655;BME280;48717;55.556;37.816;2023-02-02T03:08:10;98434.03;;;-2.65;95.34
62655;BME280;48717;55.556;37.816;2023-02-02T03:10:43;98434.84;;;-2.67;95.31
62655;BME280;48717;55.556;37.816;2023-02-02T03:13:13;98436.50;;;-2.69;95.81
62655;BME280;48717;55.556;37.816;2023-02-02T03:15:42;98435.72;;;-2.67;95.39
62655;BME280;48717;55.556;37.816;2023-02-02T03:18:15;98438.41;;;-2.64;95.14
62655;BME280;48717;55.556;37.816;2023-02-02T03:20:44;98407.06;;;-2.76;94.69
62655;BME280;48717;55.556;37.816;2023-02-02T03:23:12;98421.25;;;-2.62;94.75
62655;BME280;48717;55.556;37.816;2023-02-02T03:25:40;98438.72;;;-2.51;94.60
62655;BME280;48717;55.556;37.816;2023-02-02T03:28:07;98431.66;;;-2.58;94.42
62655;BME280;48717;55.556;37.816;2023-02-02T03:30:35;98394.06;;;-2.79;93.83
62655;BME280;48717;55.556;37.816;2023-02-02T03:33:04;98438.66;;;-2.54;93.76
62655;BME280;48717;55.556;37.816;2023-02-02T03:35:31;98450.75;;;-2.53;94.05
62655;BME280;48717;55.556;37.816;2023-02-02T03:37:58;98443.00;;;-2.53;93.72
62655;BME280;48717;55.556;37.816;2023-02-02T03:40:27;98448.25;;;-2.50;94.05
62655;BME280;48717;55.556;37.816;2023-02-02T03:42:54;98402.75;;;-2.77;93.60
62655;BME280;48717;55.556;37.816;2023-02-02T03:45:22;98432.41;;;-2.63;93.89
62655;BME280;48717;55.556;37.816;2023-02-02T03:47:52;98440.03;;;-2.66;94.26
62655;BME280;48717;55.556;37.816;2023-02-02T03:50:20;98445.47;;;-2.56;94.10
62655;BME280;48717;55.556;37.816;2023-02-02T03:52:47;98412.41;;;-2.70;93.55
62655;BME280;48717;55.556;37.816;2023-02-02T03:55:14;98441.88;;;-2.62;93.38
62655;BME280;48717;55.556;37.816;2023-02-02T03:57:41;98457.38;;;-2.62;93.75
62655;BME280;48717;55.556;37.816;2023-02-02T04:00:08;98418.06;;;-2.82;93.83
62655;BME280;48717;55.556;37.816;2023-02-02T04:02:39;98410.91;;;-2.91;93.20
62655;BME280;48717;55.556;37.816;2023-02-02T04:05:06;98452.13;;;-2.65;93.80
62655;BME280;48717;55.556;37.816;2023-02-02T04:07:33;98451.25;;;-2.65;93.76
62655;BME280;48717;55.556;37.816;2023-02-02T04:10:01;98427.50;;;-2.84;94.04
62655;BME280;48717;55.556;37.816;2023-02-02T04:12:29;98429.22;;;-2.83;94.31
62655;BME280;48717;55.556;37.816;2023-02-02T04:14:56;98421.28;;;-2.89;93.60
62655;BME280;48717;55.556;37.816;2023-02-02T04:17:23;98379.81;;;-3.26;93.82
62655;BME280;48717;55.556;37.816;2023-02-02T04:19:50;98435.03;;;-2.90;93.94
62655;BME280;48717;55.556;37.816;2023-02-02T04:22:24;98455.94;;;-2.81;94.09
62655;BME280;48717;55.556;37.816;2023-02-02T04:24:51;98458.53;;;-2.81;93.75
62655;BME280;48717;55.556;37.816;2023-02-02T04:27:19;98452.41;;;-2.84;93.92
62655;BME280;48717;55.556;37.816;2023-02-02T04:29:46;98450.72;;;-2.82;93.87
62655;BME280;48717;55.556;37.816;2023-02-02T04:32:14;98443.78;;;-2.85;93.44
62655;BME280;48717;55.556;37.816;2023-02-02T04:34:42;98447.09;;;-2.89;93.66
62655;BME280;48717;55.556;37.816;2023-02-02T04:37:10;98427.91;;;-2.97;94.24
62655;BME280;48717;55.556;37.816;2023-02-02T04:39:37;98445.34;;;-2.90;93.51
62655;BME280;48717;55.556;37.816;2023-02-02T04:42:04;98440.97;;;-2.93;93.62
62655;BME280;48717;55.556;37.816;2023-02-02T04:44:31;98438.28;;;-2.96;94.05
62655;BME280;48717;55.556;37.816;2023-02-02T04:46:59;98393.59;;;-3.24;93.11
62655;BME280;48717;55.556;37.816;2023-02-02T04:49:26;98404.81;;;-3.22;93.69
62655;BME280;48717;55.556;37.816;2023-02-02T04:51:53;98456.44;;;-2.93;93.83
62655;BME280;48717;55.556;37.816;2023-02-02T04:54:20;98452.75;;;-3.01;93.94
62655;BME280;48717;55.556;37.816;2023-02-02T04:56:47;98457.13;;;-2.98;93.67
62655;BME280;48717;55.556;37.816;2023-02-02T04:59:14;98436.03;;;-3.14;93.85
62655;BME280;48717;55.556;37.816;2023-02-02T05:01:42;98435.03;;;-3.18;93.08
62655;BME280;48717;55.556;37.816;2023-02-02T05:04:10;98464.91;;;-2.97;93.39
62655;BME280;48717;55.556;37.816;2023-02-02T05:06:37;98468.44;;;-2.95;93.29
62655;BME280;48717;55.556;37.816;2023-02-02T05:09:04;98460.31;;;-3.07;92.73
62655;BME280;48717;55.556;37.816;2023-02-02T05:11:31;98461.22;;;-3.05;92.53
62655;BME280;48717;55.556;37.816;2023-02-02T05:13:58;98470.78;;;-3.01;92.55
62655;BME280;48717;55.556;37.816;2023-02-02T05:16:25;98477.81;;;-2.97;93.12
62655;BME280;48717;55.556;37.816;2023-02-02T05:18:55;98475.22;;;-2.97;92.48
62655;BME280;48717;55.556;37.816;2023-02-02T05:21:23;98461.88;;;-3.11;92.03
62655;BME280;48717;55.556;37.816;2023-02-02T05:23:50;98476.91;;;-2.97;92.55
62655;BME280;48717;55.556;37.816;2023-02-02T05:26:22;98438.34;;;-3.22;92.18
62655;BME280;48717;55.556;37.816;2023-02-02T05:28:50;98458.56;;;-3.08;92.29
62655;BME280;48717;55.556;37.816;2023-02-02T05:31:18;98467.19;;;-3.06;92.24
62655;BME280;48717;55.556;37.816;2023-02-02T05:33:46;98475.81;;;-3.06;92.38
62655;BME280;48717;55.556;37.816;2023-02-02T05:36:13;98479.38;;;-3.02;92.47
62655;BME280;48717;55.556;37.816;2023-02-02T05:38:40;98462.88;;;-3.07;92.44
62655;BME280;48717;55.556;37.816;2023-02-02T05:41:07;98456.53;;;-3.17;92.30
62655;BME280;48717;55.556;37.816;2023-02-02T05:43:35;98489.00;;;-2.96;91.77
62655;BME280;48717;55.556;37.816;2023-02-02T05:46:03;98462.59;;;-3.17;91.67
62655;BME280;48717;55.556;37.816;2023-02-02T05:48:31;98434.97;;;-3.21;91.83
62655;BME280;48717;55.556;37.816;2023-02-02T05:51:06;98457.72;;;-3.07;91.85
62655;BME280;48717;55.556;37.816;2023-02-02T05:53:39;98448.88;;;-3.16;91.21
62655;BME280;48717;55.556;37.816;2023-02-02T05:56:08;98479.38;;;-3.02;91.42
62655;BME280;48717;55.556;37.816;2023-02-02T05:58:36;98445.28;;;-3.21;90.98
62655;BME280;48717;55.556;37.816;2023-02-02T06:01:04;98484.66;;;-2.97;90.81
62655;BME280;48717;55.556;37.816;2023-02-02T06:03:34;98460.09;;;-3.13;90.67
62655;BME280;48717;55.556;37.816;2023-02-02T06:06:02;98462.88;;;-3.07;91.39
62655;BME280;48717;55.556;37.816;2023-02-02T06:08:33;98488.97;;;-2.98;90.43
62655;BME280;48717;55.556;37.816;2023-02-02T06:11:09;98464.22;;;-3.19;90.29
62655;BME280;48717;55.556;37.816;2023-02-02T06:13:38;98496.03;;;-2.91;90.61
62655;BME280;48717;55.556;37.816;2023-02-02T06:16:06;98476.91;;;-2.99;90.46
62655;BME280;48717;55.556;37.816;2023-02-02T06:18:35;98496.03;;;-2.91;90.06
62655;BME280;48717;55.556;37.816;2023-02-02T06:21:05;98502.38;;;-2.81;90.21
62655;BME280;48717;55.556;37.816;2023-02-02T06:23:33;98503.38;;;-2.77;90.05
62655;BME280;48717;55.556;37.816;2023-02-02T06:26:02;98458.75;;;-3.02;90.12
62655;BME280;48717;55.556;37.816;2023-02-02T06:28:31;98501.59;;;-2.78;89.82
62655;BME280;48717;55.556;37.816;2023-02-02T06:31:03;98498.28;;;-2.74;89.54
62655;BME280;48717;55.556;37.816;2023-02-02T06:33:33;98515.81;;;-2.64;89.19
62655;BME280;48717;55.556;37.816;2023-02-02T06:36:03;98505.69;;;-2.57;89.08
62655;BME280;48717;55.556;37.816;2023-02-02T06:38:32;98498.63;;;-2.63;88.83
62655;BME280;48717;55.556;37.816;2023-02-02T06:41:01;98505.84;;;-2.51;88.28
62655;BME280;48717;55.556;37.816;2023-02-02T06:43:31;98506.06;;;-2.45;88.25
62655;BME280;48717;55.556;37.816;2023-02-02T06:45:59;98461.44;;;-2.70;87.86
62655;BME280;48717;55.556;37.816;2023-02-02T06:48:27;98508.63;;;-2.45;88.10
62655;BME280;48717;55.556;37.816;2023-02-02T06:50:59;98511.22;;;-2.45;88.26
62655;BME280;48717;55.556;37.816;2023-02-02T06:53:27;98516.38;;;-2.45;87.90
62655;BME280;48717;55.556;37.816;2023-02-02T06:55:57;98507.75;;;-2.45;87.87
62655;BME280;48717;55.556;37.816;2023-02-02T06:58:26;98509.69;;;-2.38;87.66
62655;BME280;48717;55.556;37.816;2023-02-02T07:00:54;98520.13;;;-2.33;87.12
62655;BME280;48717;55.556;37.816;2023-02-02T07:03:22;98513.44;;;-2.28;87.31
62655;BME280;48717;55.556;37.816;2023-02-02T07:05:50;98522.19;;;-2.23;86.71
62655;BME280;48717;55.556;37.816;2023-02-02T07:08:18;98511.13;;;-2.19;86.35
62655;BME280;48717;55.556;37.816;2023-02-02T07:10:46;98507.84;;;-2.12;86.51
62655;BME280;48717;55.556;37.816;2023-02-02T07:13:34;98473.03;;;-2.26;85.67
62655;BME280;48717;55.556;37.816;2023-02-02T07:16:04;98508.69;;;-2.13;85.43
62655;BME280;48717;55.556;37.816;2023-02-02T07:18:32;98517.38;;;-2.11;85.97
62655;BME280;48717;55.556;37.816;2023-02-02T07:21:00;98497.41;;;-2.16;85.58
62655;BME280;48717;55.556;37.816;2023-02-02T07:23:29;98530.72;;;-1.95;85.88
62655;BME280;48717;55.556;37.816;2023-02-02T07:26:03;98521.38;;;-1.90;85.63
62655;BME280;48717;55.556;37.816;2023-02-02T07:28:32;98498.50;;;-2.08;84.71
62655;BME280;48717;55.556;37.816;2023-02-02T07:31:11;98498.38;;;-2.13;85.49
62655;BME280;48717;55.556;37.816;2023-02-02T07:33:41;98525.34;;;-2.03;86.21
62655;BME280;48717;55.556;37.816;2023-02-02T07:36:11;98521.78;;;-2.06;86.21
62655;BME280;48717;55.556;37.816;2023-02-02T07:38:39;98486.41;;;-2.40;86.67
62655;BME280;48717;55.556;37.816;2023-02-02T07:41:07;98536.09;;;-2.18;87.15
62655;BME280;48717;55.556;37.816;2023-02-02T07:43:35;98532.41;;;-2.26;87.48
62655;BME280;48717;55.556;37.816;2023-02-02T07:46:05;98513.75;;;-2.16;86.92
62655;BME280;48717;55.556;37.816;2023-02-02T07:48:37;98535.56;;;-2.06;87.97
62655;BME280;48717;55.556;37.816;2023-02-02T07:51:08;98539.34;;;-1.94;86.79
62655;BME280;48717;55.556;37.816;2023-02-02T07:53:36;98542.63;;;-2.00;86.18
62655;BME280;48717;55.556;37.816;2023-02-02T07:56:13;98504.31;;;-2.15;87.04
62655;BME280;48717;55.556;37.816;2023-02-02T07:58:42;98528.56;;;-2.10;86.70
62655;BME280;48717;55.556;37.816;2023-02-02T08:01:12;98541.63;;;-2.05;86.73
62655;BME280;48717;55.556;37.816;2023-02-02T08:03:40;98541.88;;;-1.96;85.82
62655;BME280;48717;55.556;37.816;2023-02-02T08:06:13;98531.72;;;-1.90;87.09
62655;BME280;48717;55.556;37.816;2023-02-02T08:08:41;98542.16;;;-1.87;85.98
62655;BME280;48717;55.556;37.816;2023-02-02T08:11:10;98532.56;;;-1.91;86.79
62655;BME280;48717;55.556;37.816;2023-02-02T08:13:38;98501.78;;;-2.14;86.44
62655;BME280;48717;55.556;37.816;2023-02-02T08:16:06;98535.03;;;-1.94;86.21
62655;BME280;48717;55.556;37.816;2023-02-02T08:18:34;98548.81;;;-1.95;86.41
62655;BME280;48717;55.556;37.816;2023-02-02T08:21:02;98546.25;;;-1.93;86.76
62655;BME280;48717;55.556;37.816;2023-02-02T08:23:30;98536.09;;;-1.87;86.17
62655;BME280;48717;55.556;37.816;2023-02-02T08:26:15;98541.88;;;-1.96;84.90
62655;BME280;48717;55.556;37.816;2023-02-02T08:28:46;98546.97;;;-1.99;85.15
62655;BME280;48717;55.556;37.816;2023-02-02T08:31:25;98496.41;;;-2.20;84.25
62655;BME280;48717;55.556;37.816;2023-02-02T08:33:55;98494.25;;;-2.06;85.06
62655;BME280;48717;55.556;37.816;2023-02-02T08:36:26;98511.22;;;-1.84;83.92
62655;BME280;48717;55.556;37.816;2023-02-02T08:38:54;98558.16;;;-1.68;83.30
62655;BME280;48717;55.556;37.816;2023-02-02T08:41:22;98547.16;;;-1.61;81.93
62655;BME280;48717;55.556;37.816;2023-02-02T08:43:49;98491.66;;;-1.75;81.74
62655;BME280;48717;55.556;37.816;2023-02-02T08:46:18;98539.81;;;-1.45;81.11
62655;BME280;48717;55.556;37.816;2023-02-02T08:48:46;98521.75;;;-1.43;79.98
62655;BME280;48717;55.556;37.816;2023-02-02T08:51:17;98520.13;;;-1.40;79.85
62655;BME280;48717;55.556;37.816;2023-02-02T08:53:45;98521.75;;;-1.43;79.41
62655;BME280;48717;55.556;37.816;2023-02-02T08:56:17;98538.72;;;-1.55;79.28
62655;BME280;48717;55.556;37.816;2023-02-02T08:59:02;98533.56;;;-1.53;78.59
62655;BME280;48717;55.556;37.816;2023-02-02T09:01:32;98536.22;;;-1.50;78.11
62655;BME280;48717;55.556;37.816;2023-02-02T09:04:01;98517.63;;;-1.37;78.22
62655;BME280;48717;55.556;37.816;2023-02-02T09:06:35;98503.78;;;-1.39;77.40
62655;BME280;48717;55.556;37.816;2023-02-02T09:09:06;98537.69;;;-1.28;77.64
62655;BME280;48717;55.556;37.816;2023-02-02T09:11:34;98505.69;;;-1.32;77.46
62655;BME280;48717;55.556;37.816;2023-02-02T09:14:01;98466.59;;;-1.44;76.50
62655;BME280;48717;55.556;37.816;2023-02-02T09:16:32;98523.75;;;-0.98;75.85
62655;BME280;48717;55.556;37.816;2023-02-02T09:19:00;98513.44;;;-0.96;75.82
62655;BME280;48717;55.556;37.816;2023-02-02T09:21:28;98532.31;;;-1.00;75.06
62655;BME280;48717;55.556;37.816;2023-02-02T09:23:55;98518.91;;;-0.84;74.57
62655;BME280;48717;55.556;37.816;2023-02-02T09:26:24;98500.72;;;-0.88;73.93
62655;BME280;48717;55.556;37.816;2023-02-02T09:29:00;98532.84;;;-0.79;74.27
62655;BME280;48717;55.556;37.816;2023-02-02T09:31:31;98538.94;;;-0.76;73.84
62655;BME280;48717;55.556;37.816;2023-02-02T09:34:00;98531.84;;;-0.84;74.23
62655;BME280;48717;55.556;37.816;2023-02-02T09:36:28;98532.63;;;-0.88;74.37
62655;BME280;48717;55.556;37.816;2023-02-02T09:38:55;98488.94;;;-1.11;74.52
62655;BME280;48717;55.556;37.816;2023-02-02T09:52:54;98502.31;;;-0.92;74.30
62655;BME280;48717;55.556;37.816;2023-02-02T10:00:37;98504.91;;;-1.27;74.28
62655;BME280;48717;55.556;37.816;2023-02-02T10:03:23;98525.78;;;-1.21;74.42
62655;BME280;48717;55.556;37.816;2023-02-02T10:06:13;98518.84;;;-1.22;73.39
62655;BME280;48717;55.556;37.816;2023-02-02T10:08:56;98506.69;;;-1.25;74.13
62655;BME280;48717;55.556;37.816;2023-02-02T10:11:30;98465.81;;;-1.40;74.00
62655;BME280;48717;55.556;37.816;2023-02-02T10:14:04;98469.63;;;-1.25;73.43
62655;BME280;48717;55.556;37.816;2023-02-02T10:16:34;98509.81;;;-1.03;74.12
62655;BME280;48717;55.556;37.816;2023-02-02T10:19:03;98515.75;;;-1.07;74.50
62655;BME280;48717;55.556;37.816;2023-02-02T10:21:38;98509.66;;;-1.11;73.80
62655;BME280;48717;55.556;37.816;2023-02-02T10:24:19;98499.38;;;-1.08;73.96
62655;BME280;48717;55.556;37.816;2023-02-02T10:26:53;98496.00;;;-1.05;74.88
62655;BME280;48717;55.556;37.816;2023-02-02T10:32:25;98500.44;;;-0.61;73.31
62655;BME280;48717;55.556;37.816;2023-02-02T10:35:26;98492.00;;;-0.54;72.70
62655;BME280;48717;55.556;37.816;2023-02-02T10:46:16;98499.00;;;-0.49;72.62
62655;BME280;48717;55.556;37.816;2023-02-02T10:48:47;98502.63;;;-0.41;71.55
62655;BME280;48717;55.556;37.816;2023-02-02T10:51:17;98481.09;;;-0.38;71.43
62655;BME280;48717;55.556;37.816;2023-02-02T10:53:50;98499.91;;;-0.46;72.15
62655;BME280;48717;55.556;37.816;2023-02-02T10:56:42;98502.63;;;-0.41;70.50
62655;BME280;48717;55.556;37.816;2023-02-02T10:59:16;98499.19;;;-0.40;70.68
62655;BME280;48717;55.556;37.816;2023-02-02T11:01:44;98502.94;;;-0.25;70.51
62655;BME280;48717;55.556;37.816;2023-02-02T11:04:11;98499.56;;;-0.21;70.37
62655;BME280;48717;55.556;37.816;2023-02-02T11:06:57;98501.28;;;-0.23;69.73
62655;BME280;48717;55.556;37.816;2023-02-02T11:09:30;98506.44;;;-0.23;70.16
62655;BME280;48717;55.556;37.816;2023-02-02T11:12:27;98489.91;;;-0.30;70.02
62655;BME280;48717;55.556;37.816;2023-02-02T11:15:02;98502.91;;;-0.29;69.92
62655;BME280;48717;55.556;37.816;2023-02-02T11:17:31;98495.63;;;-0.45;69.96
62655;BME280;48717;55.556;37.816;2023-02-02T11:19:59;98492.06;;;-0.49;70.83
62655;BME280;48717;55.556;37.816;2023-02-02T11:22:37;98476.75;;;-0.40;71.26
62655;BME280;48717;55.556;37.816;2023-02-02T11:25:16;98483.75;;;-0.34;70.73
62655;BME280;48717;55.556;37.816;2023-02-02T11:27:48;98447.13;;;-0.53;70.42
62655;BME280;48717;55.556;37.816;2023-02-02T11:30:36;98466.47;;;-0.35;70.47
62655;BME280;48717;55.556;37.816;2023-02-02T11:36:01;98495.69;;;-0.42;71.74
62655;BME280;48717;55.556;37.816;2023-02-02T11:38:29;98494.69;;;-0.47;69.90
62655;BME280;48717;55.556;37.816;2023-02-02T11:40:58;98517.19;;;-0.46;70.37
62655;BME280;48717;55.556;37.816;2023-02-02T11:46:19;98518.09;;;-0.44;71.59
62655;BME280;48717;55.556;37.816;2023-02-02T11:49:13;98522.44;;;-0.42;70.76
62655;BME280;48717;55.556;37.816;2023-02-02T11:51:42;98488.38;;;-0.60;71.62
62655;BME280;48717;55.556;37.816;2023-02-02T11:54:25;98523.13;;;-0.50;71.69
62655;BME280;48717;55.556;37.816;2023-02-02T11:56:57;98521.38;;;-0.51;72.10
62655;BME280;48717;55.556;37.816;2023-02-02T11:59:35;98523.06;;;-0.54;70.96
62655;BME280;48717;55.556;37.816;2023-02-02T12:04:39;98463.28;;;-1.01;72.07
62655;BME280;48717;55.556;37.816;2023-02-02T12:07:36;98523.56;;;-0.69;71.24
62655;BME280;48717;55.556;37.816;2023-02-02T12:10:21;98496.25;;;-0.94;71.69
62655;BME280;48717;55.556;37.816;2023-02-02T12:18:12;98431.75;;;-1.23;72.36
62655;BME280;48717;55.556;37.816;2023-02-02T12:21:14;98519.34;;;-0.65;72.08
62655;BME280;48717;55.556;37.816;2023-02-02T12:24:02;98522.94;;;-0.60;71.80
62655;BME280;48717;55.556;37.816;2023-02-02T12:26:34;98501.94;;;-0.72;71.64
62655;BME280;48717;55.556;37.816;2023-02-02T12:32:22;98523.53;;;-0.70;72.44
62655;BME280;48717;55.556;37.816;2023-02-02T12:35:21;98521.03;;;-0.67;71.79
62655;BME280;48717;55.556;37.816;2023-02-02T12:43:43;98524.50;;;-0.65;72.58
62655;BME280;48717;55.556;37.816;2023-02-02T12:46:39;98521.25;;;-0.58;72.77
62655;BME280;48717;55.556;37.816;2023-02-02T12:49:26;98522.78;;;-0.66;71.81
62655;BME280;48717;55.556;37.816;2023-02-02T12:52:13;98484.94;;;-0.98;73.03
62655;BME280;48717;55.556;37.816;2023-02-02T12:57:35;98527.66;;;-0.79;72.77
62655;BME280;48717;55.556;37.816;2023-02-02T13:00:21;98521.50;;;-0.84;72.88
62655;BME280;48717;55.556;37.816;2023-02-02T13:03:08;98543.69;;;-0.94;74.24
62655;BME280;48717;55.556;37.816;2023-02-02T13:08:48;98472.97;;;-1.29;75.14
62655;BME280;48717;55.556;37.816;2023-02-02T13:11:48;98534.13;;;-0.96;74.00
62655;BME280;48717;55.556;37.816;2023-02-02T13:14:30;98534.88;;;-1.02;75.58
62655;BME280;48717;55.556;37.816;2023-02-02T13:17:08;98525.22;;;-1.09;75.05
62655;BME280;48717;55.556;37.816;2023-02-02T13:19:49;98518.16;;;-1.15;74.85
62655;BME280;48717;55.556;37.816;2023-02-02T13:22:26;98527.53;;;-1.20;75.84
62655;BME280;48717;55.556;37.816;2023-02-02T13:24:58;98522.97;;;-1.29;75.67
62655;BME280;48717;55.556;37.816;2023-02-02T13:27:29;98540.38;;;-1.23;75.91
62655;BME280;48717;55.556;37.816;2023-02-02T13:30:27;98537.75;;;-1.25;77.19
62655;BME280;48717;55.556;37.816;2023-02-02T13:33:22;98494.97;;;-1.47;76.87
62655;BME280;48717;55.556;37.816;2023-02-02T13:35:56;98507.28;;;-1.37;77.24
62655;BME280;48717;55.556;37.816;2023-02-02T13:38:28;98522.03;;;-1.33;76.58
62655;BME280;48717;55.556;37.816;2023-02-02T13:41:07;98529.69;;;-1.36;77.05
62655;BME280;48717;55.556;37.816;2023-02-02T13:43:42;98547.22;;;-1.25;77.71
62655;BME280;48717;55.556;37.816;2023-02-02T13:52:14;98533.47;;;-1.24;77.67
62655;BME280;48717;55.556;37.816;2023-02-02T14:00:54;98508.63;;;-1.51;77.71
62655;BME280;48717;55.556;37.816;2023-02-02T14:03:29;98547.06;;;-1.32;78.60
62655;BME280;48717;55.556;37.816;2023-02-02T14:06:11;98545.31;;;-1.33;78.54
62655;BME280;48717;55.556;37.816;2023-02-02T14:11:33;98552.16;;;-1.35;78.11
62655;BME280;48717;55.556;37.816;2023-02-02T14:14:19;98538.06;;;-1.46;78.93
62655;BME280;48717;55.556;37.816;2023-02-02T14:19:53;98479.00;;;-1.97;79.40
62655;BME280;48717;55.556;37.816;2023-02-02T14:28:00;98549.81;;;-1.58;79.24
62655;BME280;48717;55.556;37.816;2023-02-02T14:30:35;98548.38;;;-1.48;80.31
62655;BME280;48717;55.556;37.816;2023-02-02T14:40:58;98572.34;;;-1.53;79.63
62655;BME280;48717;55.556;37.816;2023-02-02T14:43:38;98576.69;;;-1.52;80.11
62655;BME280;48717;55.556;37.816;2023-02-02T14:46:37;98574.97;;;-1.52;80.54
62655;BME280;48717;55.556;37.816;2023-02-02T14:49:06;98578.47;;;-1.50;79.94
62655;BME280;48717;55.556;37.816;2023-02-02T14:51:46;98590.63;;;-1.47;80.06
62655;BME280;48717;55.556;37.816;2023-02-02T14:54:30;98560.75;;;-1.68;80.89
62655;BME280;48717;55.556;37.816;2023-02-02T14:59:49;98552.03;;;-1.72;80.85
62655;BME280;48717;55.556;37.816;2023-02-02T15:02:21;98556.16;;;-1.78;80.37
62655;BME280;48717;55.556;37.816;2023-02-02T15:04:49;98588.69;;;-1.54;80.08
62655;BME280;48717;55.556;37.816;2023-02-02T15:09:52;98597.44;;;-1.51;81.12
62655;BME280;48717;55.556;37.816;2023-02-02T15:12:41;98583.56;;;-1.53;80.26
62655;BME280;48717;55.556;37.816;2023-02-02T15:15:25;98532.06;;;-1.77;80.42
62655;BME280;48717;55.556;37.816;2023-02-02T15:21:15;98602.44;;;-1.55;80.43